Time;durP1;ratioP1;P1;durP2;ratioP2;P2;SDS_P1;SDS_P2;PMS_P1;PMS_P2;Temp;Humidity;BMP_temperature;BMP_pressure;BME280_temperature;BME280_humidity;BME280_pressure;Samples;Min_cycle;Max_cycle;Signal;HPM_P1;HPM_P2
2022/12/21 00:01:18;;;;;;;12.38;10.90;;;9.40;99.90;;;;;;5032446;28;20422;-64
2022/12/21 00:03:46;;;;;;;13.25;10.95;;;9.30;99.90;;;;;;5031878;28;20415;-63
2022/12/21 00:06:14;;;;;;;15.05;12.00;;;9.30;99.90;;;;;;5031987;28;20418;-62
2022/12/21 00:08:43;;;;;;;13.60;11.80;;;9.30;99.90;;;;;;5032174;28;20426;-63
2022/12/21 00:11:12;;;;;;;13.02;11.57;;;9.30;99.90;;;;;;5031765;28;20918;-63
2022/12/21 00:13:39;;;;;;;14.80;12.80;;;9.20;99.90;;;;;;5031908;28;20911;-63
2022/12/21 00:16:09;;;;;;;15.57;13.00;;;9.20;99.90;;;;;;5032003;28;20957;-61
2022/12/21 00:18:38;;;;;;;15.45;12.85;;;9.20;99.90;;;;;;5032105;28;20465;-62
2022/12/21 00:21:06;;;;;;;15.63;13.10;;;9.20;99.90;;;;;;5032199;28;20418;-61
2022/12/21 00:23:34;;;;;;;16.55;13.10;;;9.20;99.90;;;;;;5032485;28;20426;-60
2022/12/21 00:26:05;;;;;;;14.60;13.00;;;9.10;99.90;;;;;;5033168;28;20418;-62
2022/12/21 00:28:32;;;;;;;14.80;13.13;;;9.10;99.90;;;;;;5036461;28;20446;-61
2022/12/21 00:31:06;;;;;;;15.55;13.88;;;9.10;99.90;;;;;;5036392;28;20783;-62
2022/12/21 00:33:33;;;;;;;18.25;14.35;;;9.10;99.90;;;;;;5035753;28;20839;-61
2022/12/21 00:36:00;;;;;;;17.30;14.00;;;9.10;99.90;;;;;;5036500;28;20610;-62
2022/12/21 00:38:27;;;;;;;17.58;14.57;;;9.00;99.90;;;;;;5036264;28;20418;-61
2022/12/21 00:40:57;;;;;;;17.83;14.65;;;9.00;99.90;;;;;;5035889;28;20422;-62
2022/12/21 00:43:26;;;;;;;18.88;16.00;;;9.00;99.90;;;;;;5036209;28;20495;-62
2022/12/21 00:45:53;;;;;;;19.10;16.13;;;9.00;99.90;;;;;;5036052;28;20426;-61
2022/12/21 00:48:20;;;;;;;19.08;15.75;;;9.00;99.90;;;;;;5035881;28;20415;-62
2022/12/21 00:50:47;;;;;;;18.63;15.88;;;9.00;99.90;;;;;;5035712;28;20776;-60
2022/12/21 00:53:14;;;;;;;19.30;16.00;;;9.00;99.90;;;;;;5036301;28;20418;-62
2022/12/21 00:55:41;;;;;;;19.50;15.95;;;9.00;99.90;;;;;;5035396;28;20435;-61
2022/12/21 00:58:08;;;;;;;18.85;15.60;;;9.00;99.90;;;;;;5035513;28;20910;-61
2022/12/21 01:00:36;;;;;;;18.10;16.20;;;9.00;99.90;;;;;;5035979;28;20938;-62
2022/12/21 01:03:03;;;;;;;17.13;15.32;;;9.00;99.90;;;;;;5035891;28;20414;-62
2022/12/21 01:05:31;;;;;;;18.40;16.10;;;9.00;99.90;;;;;;5035844;28;20414;-62
2022/12/21 01:07:58;;;;;;;17.98;16.08;;;9.00;99.90;;;;;;5035600;28;20414;-62
2022/12/21 01:10:25;;;;;;;19.27;15.52;;;9.00;99.90;;;;;;5035740;28;20890;-63
2022/12/21 01:12:51;;;;;;;17.73;15.57;;;9.00;99.90;;;;;;5035877;28;20414;-62
2022/12/21 01:15:18;;;;;;;18.30;15.77;;;9.00;99.90;;;;;;5035367;28;20445;-62
2022/12/21 01:17:47;;;;;;;18.45;15.90;;;9.00;99.90;;;;;;5035539;28;20498;-64
2022/12/21 01:20:14;;;;;;;19.77;15.75;;;9.00;99.90;;;;;;5036133;28;20454;-63
2022/12/21 01:22:41;;;;;;;18.80;16.25;;;9.00;99.90;;;;;;5035335;28;20899;-63
2022/12/21 01:25:08;;;;;;;18.77;15.55;;;9.00;99.90;;;;;;5035214;28;20922;-63
2022/12/21 01:27:35;;;;;;;17.60;15.50;;;9.00;99.90;;;;;;5036028;28;20509;-62
2022/12/21 01:30:02;;;;;;;17.58;15.70;;;9.00;99.90;;;;;;5035600;28;20414;-61
2022/12/21 01:32:29;;;;;;;18.33;16.42;;;9.00;99.90;;;;;;5035619;28;20422;-61
2022/12/21 01:34:57;;;;;;;19.40;16.80;;;9.00;99.90;;;;;;5035457;28;20418;-63
2022/12/21 01:37:24;;;;;;;19.53;16.63;;;8.90;99.90;;;;;;5034470;28;20541;-63
2022/12/21 01:39:51;;;;;;;19.23;16.38;;;8.90;99.90;;;;;;5035534;28;20418;-61
2022/12/21 01:42:18;;;;;;;19.73;16.90;;;8.90;99.90;;;;;;5035452;28;20429;-62
2022/12/21 01:45:05;;;;;;;20.37;16.93;;;8.90;99.90;;;;;;5034978;28;20457;-62
2022/12/21 01:47:38;;;;;;;19.48;17.08;;;8.90;99.90;;;;;;5034565;28;20418;-62
2022/12/21 01:50:28;;;;;;;20.83;17.48;;;8.90;99.90;;;;;;5034857;28;20423;-62
2022/12/21 01:52:58;;;;;;;19.10;17.00;;;8.90;99.90;;;;;;5034586;28;20415;-62
2022/12/21 01:55:25;;;;;;;19.70;17.60;;;8.90;99.90;;;;;;5034612;28;20419;-62
2022/12/21 01:57:53;;;;;;;18.00;16.10;;;8.90;99.90;;;;;;5034264;28;20419;-63
2022/12/21 02:00:20;;;;;;;20.20;17.20;;;8.90;99.90;;;;;;5034399;28;20501;-62
2022/12/21 02:02:51;;;;;;;20.92;17.10;;;8.90;99.90;;;;;;5034395;28;20422;-63
2022/12/21 02:05:28;;;;;;;19.50;17.40;;;8.90;99.90;;;;;;5034219;28;20484;-63
2022/12/21 02:07:58;;;;;;;19.73;16.80;;;8.90;99.90;;;;;;5034142;28;20468;-63
2022/12/21 02:10:25;;;;;;;19.90;17.75;;;8.90;99.90;;;;;;5034008;28;20883;-62
2022/12/21 02:13:00;;;;;;;19.95;17.65;;;8.90;99.90;;;;;;5034405;28;20415;-62
2022/12/21 02:15:43;;;;;;;20.45;17.98;;;8.90;99.90;;;;;;5033852;28;20978;-62
2022/12/21 02:18:18;;;;;;;20.60;18.38;;;8.80;99.90;;;;;;5033788;28;20463;-61
2022/12/21 02:21:21;;;;;;;21.87;18.80;;;8.80;99.90;;;;;;5033670;28;20934;-61
2022/12/21 02:24:18;;;;;;;23.08;19.20;;;8.80;99.90;;;;;;5026619;28;20794;-62
2022/12/21 02:27:11;;;;;;;22.70;18.73;;;8.80;99.90;;;;;;5034136;28;20463;-62
2022/12/21 02:30:03;;;;;;;22.00;19.02;;;8.80;99.90;;;;;;5032206;28;20466;-61
2022/12/21 02:32:40;;;;;;;20.80;18.47;;;8.80;99.90;;;;;;5034051;28;20464;-61
2022/12/21 02:35:20;;;;;;;21.30;18.55;;;8.90;99.90;;;;;;5033931;28;20442;-61
2022/12/21 02:37:57;;;;;;;21.88;19.17;;;8.90;99.90;;;;;;5033755;28;20438;-61
2022/12/21 02:40:34;;;;;;;21.95;18.50;;;8.90;99.90;;;;;;5033765;28;20436;-62
2022/12/21 02:45:58;;;;;;;22.10;18.70;;;8.90;99.90;;;;;;5035694;28;20401;-61
2022/12/21 02:48:33;;;;;;;21.40;18.00;;;8.90;99.90;;;;;;5036699;28;20422;-62
2022/12/21 02:51:04;;;;;;;20.83;18.42;;;9.00;99.90;;;;;;5033918;28;20480;-62
2022/12/21 02:53:35;;;;;;;23.02;18.15;;;9.00;99.90;;;;;;5034499;28;20460;-62
2022/12/21 02:56:02;;;;;;;21.17;18.88;;;8.90;99.90;;;;;;5033334;28;20435;-63
2022/12/21 02:58:29;;;;;;;21.55;18.30;;;8.90;99.90;;;;;;5033082;28;20423;-62
2022/12/21 03:01:12;;;;;;;21.55;18.88;;;8.90;99.90;;;;;;5033066;28;20895;-62
2022/12/21 03:04:03;;;;;;;21.35;19.15;;;8.90;99.90;;;;;;5033204;28;20473;-63
2022/12/21 03:06:58;;;;;;;21.50;19.20;;;8.90;99.90;;;;;;5033141;28;20426;-62
2022/12/21 03:09:33;;;;;;;23.33;19.30;;;8.90;99.90;;;;;;5032867;28;20414;-61
2022/12/21 03:12:04;;;;;;;21.45;18.60;;;8.90;99.90;;;;;;5033048;28;20427;-63
2022/12/21 03:14:43;;;;;;;23.60;18.30;;;9.00;99.90;;;;;;5032989;28;20471;-63
2022/12/21 03:17:15;;;;;;;22.33;18.65;;;9.00;99.90;;;;;;5032808;28;20441;-62
2022/12/21 03:19:50;;;;;;;23.13;19.33;;;9.00;99.90;;;;;;5033576;28;20504;-62
2022/12/21 03:22:28;;;;;;;22.17;19.45;;;9.00;99.90;;;;;;5033465;28;20419;-62
2022/12/21 03:25:01;;;;;;;21.50;19.02;;;9.00;99.90;;;;;;5033259;28;20422;-62
2022/12/21 03:27:33;;;;;;;22.65;19.70;;;9.00;99.90;;;;;;5034013;28;20430;-63
2022/12/21 03:30:03;;;;;;;23.60;19.63;;;9.00;99.90;;;;;;5035755;28;20493;-62
2022/12/21 03:32:36;;;;;;;21.60;18.70;;;9.00;99.90;;;;;;5035604;28;20471;-63
2022/12/21 03:35:09;;;;;;;23.98;20.48;;;8.90;99.90;;;;;;5035653;28;20772;-62
2022/12/21 03:37:40;;;;;;;23.70;20.40;;;8.90;99.90;;;;;;5036367;28;20575;-62
2022/12/21 03:40:11;;;;;;;25.20;20.70;;;8.90;99.90;;;;;;5035995;28;20430;-63
2022/12/21 03:42:44;;;;;;;23.27;20.75;;;8.80;99.90;;;;;;5035469;28;20784;-63
2022/12/21 03:45:13;;;;;;;23.58;19.80;;;8.80;99.90;;;;;;5032692;28;20784;-63
2022/12/21 03:47:45;;;;;;;24.88;21.05;;;8.80;99.90;;;;;;5032701;28;20434;-62
2022/12/21 03:50:18;;;;;;;26.30;21.73;;;8.80;99.90;;;;;;5032922;28;20439;-63
2022/12/21 03:52:50;;;;;;;26.45;21.30;;;8.80;99.90;;;;;;5032935;28;20417;-63
2022/12/21 03:55:21;;;;;;;26.90;21.60;;;8.80;99.90;;;;;;5035250;28;20417;-63
2022/12/21 03:57:49;;;;;;;25.55;21.75;;;8.80;99.90;;;;;;5034103;28;20510;-62
2022/12/21 04:00:16;;;;;;;26.15;21.85;;;8.80;99.90;;;;;;5034404;28;20430;-62
2022/12/21 04:02:51;;;;;;;27.53;21.67;;;8.80;99.90;;;;;;5035237;28;20422;-63
2022/12/21 04:05:23;;;;;;;22.80;20.30;;;8.80;99.90;;;;;;5034878;28;20420;-63
2022/12/21 04:10:49;;;;;;;22.02;18.70;;;8.80;99.90;;;;;;5111498;27;20341;-63
2022/12/21 04:13:15;;;;;;;25.20;20.40;;;8.80;99.90;;;;;;5110434;28;20489;-63
2022/12/21 04:21:06;;;;;;;26.52;20.80;;;8.70;99.90;;;;;;5088325;28;20437;-63
2022/12/21 04:29:03;;;;;;;24.00;19.17;;;8.80;99.90;;;;;;5109584;28;21004;-63
2022/12/21 04:31:30;;;;;;;24.70;19.55;;;8.80;99.90;;;;;;5110574;28;20409;-63
2022/12/21 04:33:57;;;;;;;24.00;19.02;;;8.80;99.90;;;;;;5109975;28;20763;-63
2022/12/21 04:39:07;;;;;;;22.70;18.40;;;8.80;99.90;;;;;;5109402;28;20533;-63
2022/12/21 04:41:35;;;;;;;25.30;20.98;;;8.80;99.90;;;;;;5109212;28;20885;-64
2022/12/21 04:44:02;;;;;;;24.87;20.30;;;8.70;99.90;;;;;;5109171;28;20833;-63
2022/12/21 04:46:29;;;;;;;24.35;19.85;;;8.70;99.90;;;;;;5109257;28;20511;-63
2022/12/21 04:48:56;;;;;;;28.42;21.60;;;8.70;99.90;;;;;;5109456;28;20920;-63
2022/12/21 04:51:24;;;;;;;26.33;21.42;;;8.70;99.90;;;;;;5109837;28;20881;-63
2022/12/21 04:53:52;;;;;;;29.95;23.30;;;8.60;99.90;;;;;;5109533;28;20749;-64
2022/12/21 04:56:19;;;;;;;30.25;23.27;;;8.60;99.90;;;;;;5109312;28;20413;-64
2022/12/21 04:58:47;;;;;;;28.92;21.88;;;8.60;99.90;;;;;;5109361;28;20413;-63
2022/12/21 05:01:16;;;;;;;29.58;22.05;;;8.60;99.90;;;;;;5109519;28;20420;-64
2022/12/21 05:03:43;;;;;;;29.83;23.00;;;8.60;99.90;;;;;;5109167;28;20417;-64
2022/12/21 05:06:11;;;;;;;29.17;22.83;;;8.60;99.90;;;;;;5108980;28;20417;-63
2022/12/21 05:08:39;;;;;;;31.35;23.00;;;8.60;99.90;;;;;;5111335;28;20425;-64
2022/12/21 05:11:11;;;;;;;29.45;22.30;;;8.60;99.90;;;;;;5129791;28;20769;-63
2022/12/21 05:13:38;;;;;;;30.17;23.35;;;8.60;99.90;;;;;;5129264;28;20418;-64
2022/12/21 05:16:08;;;;;;;31.70;22.98;;;8.60;99.90;;;;;;5129427;28;20435;-64
2022/12/21 05:18:35;;;;;;;30.40;22.97;;;8.70;99.90;;;;;;5116140;28;20833;-64
2022/12/21 05:21:03;;;;;;;32.60;24.13;;;8.70;99.90;;;;;;5121530;28;20419;-64
2022/12/21 05:23:29;;;;;;;29.80;22.02;;;8.70;99.90;;;;;;5109130;28;20452;-63
2022/12/21 05:25:56;;;;;;;31.30;23.77;;;8.70;99.90;;;;;;5101111;28;20418;-64
2022/12/21 05:28:23;;;;;;;31.95;23.02;;;8.70;99.90;;;;;;5115589;28;20417;-64
2022/12/21 05:30:50;;;;;;;31.77;24.40;;;8.60;99.90;;;;;;5114952;28;20425;-64
2022/12/21 05:33:18;;;;;;;33.15;24.55;;;8.60;99.90;;;;;;5115607;28;20490;-63
2022/12/21 05:35:45;;;;;;;33.05;23.40;;;8.60;99.90;;;;;;5108026;28;20902;-63
2022/12/21 05:38:12;;;;;;;34.95;24.30;;;8.60;99.90;;;;;;5094301;28;21007;-63
2022/12/21 05:40:39;;;;;;;36.58;25.30;;;8.60;99.90;;;;;;5094601;28;20774;-64
2022/12/21 05:43:07;;;;;;;35.30;24.70;;;8.60;99.90;;;;;;5095198;28;20504;-61
2022/12/21 05:45:33;;;;;;;36.58;26.08;;;8.60;99.90;;;;;;5094662;28;20776;-63
2022/12/21 05:48:00;;;;;;;33.13;24.58;;;8.60;99.90;;;;;;5094376;28;20939;-63
2022/12/21 05:50:28;;;;;;;31.50;23.25;;;8.60;99.90;;;;;;5094284;28;20425;-65
2022/12/21 05:52:55;;;;;;;33.80;25.30;;;8.60;99.90;;;;;;5094299;28;20487;-63
2022/12/21 05:55:22;;;;;;;33.20;25.20;;;8.60;99.90;;;;;;5094815;28;20418;-63
2022/12/21 05:57:49;;;;;;;40.17;24.45;;;8.60;99.90;;;;;;5094346;28;20417;-64
2022/12/21 06:00:17;;;;;;;36.22;24.92;;;8.60;99.90;;;;;;5094950;28;20484;-65
2022/12/21 06:02:44;;;;;;;38.45;25.70;;;8.60;99.90;;;;;;5094496;28;20431;-64
2022/12/21 06:05:11;;;;;;;36.05;25.70;;;8.60;99.90;;;;;;5100260;28;20431;-64
2022/12/21 06:07:42;;;;;;;35.92;26.02;;;8.60;99.90;;;;;;5114888;28;20413;-64
2022/12/21 06:10:10;;;;;;;33.33;23.50;;;8.60;99.90;;;;;;5105304;28;20912;-63
2022/12/21 06:12:37;;;;;;;33.90;24.02;;;8.60;99.90;;;;;;5096532;28;20460;-64
2022/12/21 06:15:05;;;;;;;35.28;23.25;;;8.60;99.90;;;;;;5104561;28;20450;-64
2022/12/21 06:17:32;;;;;;;30.60;22.45;;;8.60;99.90;;;;;;5108120;28;20439;-64
2022/12/21 06:19:58;;;;;;;31.58;23.00;;;8.60;99.90;;;;;;5099197;28;20887;-64
2022/12/21 06:22:25;;;;;;;32.70;23.13;;;8.50;99.90;;;;;;5097260;28;20417;-64
2022/12/21 06:24:53;;;;;;;37.88;22.35;;;8.50;99.90;;;;;;5098925;28;20419;-64
2022/12/21 06:27:20;;;;;;;35.05;23.52;;;8.50;99.90;;;;;;5097349;28;20506;-64
2022/12/21 06:29:47;;;;;;;33.05;23.35;;;8.50;99.90;;;;;;5108655;28;20418;-63
2022/12/21 06:32:14;;;;;;;34.80;23.15;;;8.50;99.90;;;;;;5093170;28;20485;-65
2022/12/21 06:34:41;;;;;;;35.85;23.85;;;8.40;99.90;;;;;;5114128;28;20412;-63
2022/12/21 06:37:09;;;;;;;35.60;22.88;;;8.40;99.90;;;;;;5111619;28;20501;-63
2022/12/21 06:39:36;;;;;;;33.57;22.90;;;8.40;99.90;;;;;;5102759;28;20552;-65
2022/12/21 06:42:05;;;;;;;35.13;22.40;;;8.40;99.90;;;;;;5093540;28;20771;-65
2022/12/21 06:44:32;;;;;;;31.83;22.05;;;8.40;99.90;;;;;;5093553;28;20417;-68
2022/12/21 06:46:59;;;;;;;30.63;21.38;;;8.40;99.90;;;;;;5093514;28;20418;-63
2022/12/21 06:49:26;;;;;;;34.45;22.58;;;8.40;99.90;;;;;;5093237;28;20425;-64
2022/12/21 06:51:53;;;;;;;32.80;21.52;;;8.30;99.90;;;;;;5105001;28;20515;-66
2022/12/21 06:54:20;;;;;;;33.53;22.17;;;8.30;99.90;;;;;;5101405;28;20529;-63
2022/12/21 06:56:46;;;;;;;36.30;23.77;;;8.30;99.90;;;;;;5114515;28;20408;-64
2022/12/21 06:59:15;;;;;;;37.38;23.90;;;8.40;99.90;;;;;;5097297;28;20506;-64
2022/12/21 07:01:42;;;;;;;34.25;22.05;;;8.40;99.90;;;;;;5094747;28;20426;-64
2022/12/21 07:04:09;;;;;;;35.53;22.85;;;8.40;99.90;;;;;;5095515;28;20448;-64
2022/12/21 07:06:36;;;;;;;32.42;22.25;;;8.40;99.90;;;;;;5094673;28;20456;-64
2022/12/21 07:09:03;;;;;;;35.95;22.40;;;8.50;99.90;;;;;;5096492;28;20525;-64
2022/12/21 07:11:31;;;;;;;35.35;22.85;;;8.50;99.90;;;;;;5091668;28;20426;-63
2022/12/21 07:13:58;;;;;;;33.70;21.87;;;8.50;99.90;;;;;;5095565;28;20457;-65
2022/12/21 07:16:26;;;;;;;32.15;22.02;;;8.50;99.90;;;;;;5098386;28;20509;-65
2022/12/21 07:18:54;;;;;;;33.08;23.30;;;8.60;99.90;;;;;;5099428;28;20437;-64
2022/12/21 07:21:22;;;;;;;33.13;22.60;;;8.60;99.90;;;;;;5100995;28;20446;-66
2022/12/21 07:23:49;;;;;;;33.75;23.40;;;8.60;99.90;;;;;;5096990;28;20486;-63
2022/12/21 07:26:18;;;;;;;32.55;23.25;;;8.60;99.90;;;;;;5098358;28;20428;-64
2022/12/21 07:28:47;;;;;;;35.70;23.90;;;8.60;99.90;;;;;;5113640;28;20423;-66
2022/12/21 07:31:16;;;;;;;36.78;24.75;;;8.50;99.90;;;;;;5106791;28;20451;-65
2022/12/21 07:33:44;;;;;;;36.95;24.98;;;8.50;99.90;;;;;;5092845;28;20446;-63
2022/12/21 07:36:12;;;;;;;35.95;23.42;;;8.50;99.90;;;;;;5106754;28;20426;-63
2022/12/21 07:38:40;;;;;;;34.47;23.45;;;8.50;99.90;;;;;;5113136;28;20970;-62
2022/12/21 07:41:09;;;;;;;36.92;25.15;;;8.50;99.90;;;;;;5105252;28;20422;-64
2022/12/21 07:43:37;;;;;;;40.38;26.23;;;8.50;99.90;;;;;;5093312;28;20478;-63
2022/12/21 07:46:05;;;;;;;40.78;25.83;;;8.40;99.90;;;;;;5093482;28;20418;-63
2022/12/21 07:48:32;;;;;;;38.47;24.60;;;8.40;99.90;;;;;;5094032;28;20439;-65
2022/12/21 07:51:00;;;;;;;41.15;24.50;;;8.50;99.90;;;;;;5092932;28;20493;-62
2022/12/21 07:53:27;;;;;;;37.60;24.53;;;8.50;99.90;;;;;;5093391;28;20468;-64
2022/12/21 07:55:59;;;;;;;35.22;23.92;;;8.50;99.90;;;;;;5093016;28;20439;-64
2022/12/21 07:58:26;;;;;;;37.80;24.70;;;8.50;99.90;;;;;;5092821;28;20427;-62
2022/12/21 08:00:53;;;;;;;38.38;23.88;;;8.60;99.90;;;;;;5106130;28;20492;-63
2022/12/21 08:03:20;;;;;;;34.50;23.52;;;8.60;99.90;;;;;;5114004;28;20461;-63
2022/12/21 08:05:46;;;;;;;34.60;24.20;;;8.70;99.90;;;;;;5114018;28;20493;-63
2022/12/21 08:08:15;;;;;;;33.78;22.90;;;8.60;99.90;;;;;;5104236;28;20516;-64
2022/12/21 08:10:45;;;;;;;35.67;24.00;;;8.70;99.90;;;;;;5092852;28;20493;-63
2022/12/21 08:13:12;;;;;;;32.85;22.80;;;8.70;99.90;;;;;;5096948;28;20440;-63
2022/12/21 08:15:39;;;;;;;35.53;22.58;;;8.70;99.90;;;;;;5109778;28;20497;-64
2022/12/21 08:18:06;;;;;;;36.20;22.45;;;8.60;99.90;;;;;;5100809;28;20511;-64
2022/12/21 08:20:33;;;;;;;35.47;23.42;;;8.60;99.90;;;;;;5099402;28;20511;-64
2022/12/21 08:23:00;;;;;;;36.20;23.05;;;8.60;99.90;;;;;;5103885;28;20805;-62
2022/12/21 08:25:28;;;;;;;36.80;22.75;;;8.60;99.90;;;;;;5101283;28;20420;-63
2022/12/21 08:27:55;;;;;;;40.08;24.42;;;8.50;99.90;;;;;;5113189;28;20427;-63
2022/12/21 08:30:22;;;;;;;31.80;21.40;;;8.50;99.90;;;;;;5103806;28;20445;-64
2022/12/21 08:32:50;;;;;;;40.00;23.77;;;8.50;99.90;;;;;;5094940;28;20514;-64
2022/12/21 08:35:18;;;;;;;37.17;22.92;;;8.50;99.90;;;;;;5093361;28;20427;-64
2022/12/21 08:37:45;;;;;;;37.15;23.65;;;8.50;99.90;;;;;;5093368;28;20418;-62
2022/12/21 08:40:13;;;;;;;36.38;23.52;;;8.50;99.90;;;;;;5093022;28;20449;-63
2022/12/21 08:42:41;;;;;;;38.22;23.40;;;8.50;99.90;;;;;;5093863;28;20455;-64
2022/12/21 08:45:09;;;;;;;32.67;22.45;;;8.60;99.90;;;;;;5093308;28;20406;-63
2022/12/21 08:47:36;;;;;;;34.85;22.77;;;8.60;99.90;;;;;;5092306;28;20921;-67
2022/12/21 08:50:04;;;;;;;36.10;23.13;;;8.60;99.90;;;;;;5093396;28;20500;-65
2022/12/21 08:52:30;;;;;;;35.72;22.27;;;8.60;99.90;;;;;;5098304;28;20448;-65
2022/12/21 08:54:58;;;;;;;35.40;23.60;;;8.60;99.90;;;;;;5094454;28;20434;-65
2022/12/21 08:57:25;;;;;;;36.22;23.80;;;8.50;99.90;;;;;;5103221;28;20408;-64
2022/12/21 08:59:53;;;;;;;40.00;22.95;;;8.50;99.90;;;;;;5103688;28;20846;-64
2022/12/21 09:02:20;;;;;;;38.28;23.58;;;8.50;99.90;;;;;;5102479;28;20501;-68
2022/12/21 09:04:47;;;;;;;40.15;24.70;;;8.50;99.90;;;;;;5097607;28;20445;-64
2022/12/21 09:07:14;;;;;;;39.38;22.70;;;8.50;99.90;;;;;;5097310;28;20497;-66
2022/12/21 09:09:41;;;;;;;35.92;23.75;;;8.60;99.90;;;;;;5098072;28;20416;-64
2022/12/21 09:12:08;;;;;;;41.03;24.00;;;8.60;99.90;;;;;;5100506;28;20419;-64
2022/12/21 09:14:35;;;;;;;37.22;24.73;;;8.60;99.90;;;;;;5099453;28;20489;-64
2022/12/21 09:17:03;;;;;;;43.00;24.13;;;8.60;99.90;;;;;;5100526;28;20442;-66
2022/12/21 09:19:30;;;;;;;35.10;22.38;;;8.60;99.90;;;;;;5102321;28;20610;-65
2022/12/21 09:21:57;;;;;;;37.35;23.38;;;8.60;99.90;;;;;;5104585;28;20837;-66
2022/12/21 09:24:24;;;;;;;38.07;24.27;;;8.50;99.90;;;;;;5104852;28;20925;-65
2022/12/21 09:26:51;;;;;;;40.95;23.13;;;8.50;99.90;;;;;;5105783;28;20438;-64
2022/12/21 09:29:17;;;;;;;39.25;23.05;;;8.50;99.90;;;;;;5104577;28;20418;-64
2022/12/21 09:31:45;;;;;;;40.13;25.30;;;8.50;99.90;;;;;;5099580;28;20528;-62
2022/12/21 09:34:13;;;;;;;39.13;25.10;;;8.60;99.90;;;;;;5103356;28;20902;-63
2022/12/21 09:36:40;;;;;;;37.40;22.95;;;8.60;99.90;;;;;;5101142;28;20576;-64
2022/12/21 09:39:07;;;;;;;37.92;23.52;;;8.70;99.90;;;;;;5102982;28;20501;-64
2022/12/21 09:41:44;;;;;;;39.03;24.15;;;8.80;99.90;;;;;;5095950;28;20493;-63
2022/12/21 09:44:38;;;;;;;37.15;22.48;;;8.80;99.90;;;;;;5095144;28;20453;-65
2022/12/21 09:47:07;;;;;;;33.38;23.42;;;9.00;99.90;;;;;;5089170;28;20792;-64
2022/12/21 09:49:40;;;;;;;41.13;26.83;;;9.00;99.90;;;;;;5095857;28;20448;-64
2022/12/21 09:52:16;;;;;;;41.30;26.88;;;9.00;99.90;;;;;;5096990;28;20425;-63
2022/12/21 09:54:50;;;;;;;35.50;23.95;;;9.00;99.90;;;;;;5096970;28;20945;-64
2022/12/21 09:57:17;;;;;;;35.28;23.83;;;9.00;99.90;;;;;;5096798;28;20422;-63
2022/12/21 09:59:44;;;;;;;38.17;23.02;;;9.00;99.90;;;;;;5097058;28;20518;-62
2022/12/21 10:02:25;;;;;;;36.60;22.80;;;9.00;99.90;;;;;;5096693;28;20755;-63
2022/12/21 10:05:03;;;;;;;33.78;22.10;;;9.00;99.90;;;;;;5096122;28;20425;-64
2022/12/21 10:07:52;;;;;;;32.00;21.38;;;9.00;99.90;;;;;;5095589;28;20919;-66
2022/12/21 10:10:24;;;;;;;31.10;20.95;;;9.00;99.90;;;;;;5095950;28;20975;-64
2022/12/21 10:13:00;;;;;;;33.33;22.40;;;9.00;99.90;;;;;;5097802;28;20440;-62
2022/12/21 10:15:32;;;;;;;29.83;20.60;;;8.90;99.90;;;;;;5097938;28;20491;-66
2022/12/21 10:18:10;;;;;;;31.75;21.20;;;8.90;99.90;;;;;;5098099;28;20421;-66
2022/12/21 10:20:54;;;;;;;33.00;22.17;;;8.90;99.90;;;;;;5095707;28;20421;-65
2022/12/21 10:23:26;;;;;;;31.40;20.98;;;8.90;99.90;;;;;;5126090;22;20437;-61
2022/12/21 10:25:56;;;;;;;34.58;22.10;;;8.90;99.90;;;;;;5093658;28;20415;-63
2022/12/21 10:28:30;;;;;;;34.55;22.40;;;8.80;99.90;;;;;;5093999;28;20451;-65
2022/12/21 10:31:03;;;;;;;33.33;22.13;;;8.90;99.90;;;;;;5093121;28;20816;-65
2022/12/21 10:33:30;;;;;;;32.37;20.83;;;8.90;99.90;;;;;;5093427;28;20445;-65
2022/12/21 10:36:03;;;;;;;32.95;20.85;;;9.00;99.90;;;;;;5093782;28;20453;-65
2022/12/21 10:38:34;;;;;;;32.57;21.50;;;9.00;99.90;;;;;;5093665;28;20414;-63
2022/12/21 10:41:03;;;;;;;30.37;21.07;;;9.00;99.90;;;;;;5093230;28;20442;-61
2022/12/21 10:43:39;;;;;;;32.50;20.45;;;9.00;99.90;;;;;;5093090;28;20406;-63
2022/12/21 10:46:06;;;;;;;28.65;19.65;;;9.00;99.90;;;;;;5093283;28;20465;-62
2022/12/21 10:48:33;;;;;;;29.67;19.15;;;9.00;99.90;;;;;;5093300;28;20433;-63
2022/12/21 10:51:14;;;;;;;30.67;20.67;;;8.90;99.90;;;;;;5093096;28;20437;-64
2022/12/21 10:53:56;;;;;;;32.10;20.27;;;8.90;99.90;;;;;;5093068;28;20428;-64
2022/12/21 10:56:25;;;;;;;31.35;20.40;;;8.90;99.90;;;;;;5093170;28;20742;-63
2022/12/21 10:58:53;;;;;;;28.37;19.67;;;9.00;99.90;;;;;;5093011;28;20413;-65
2022/12/21 11:01:26;;;;;;;26.33;18.15;;;9.10;99.90;;;;;;5092819;28;20498;-64
2022/12/21 11:04:11;;;;;;;37.13;27.05;;;9.20;99.90;;;;;;5092950;28;20409;-66
2022/12/21 11:06:39;;;;;;;39.87;29.20;;;9.30;99.90;;;;;;5093560;28;20402;-64
2022/12/21 11:09:28;;;;;;;31.55;22.50;;;9.30;99.90;;;;;;5092776;28;20406;-64
2022/12/21 11:11:55;;;;;;;27.50;20.48;;;9.30;99.90;;;;;;5092673;28;20425;-63
2022/12/21 11:14:23;;;;;;;28.40;20.20;;;9.30;99.90;;;;;;5092959;28;20406;-64
2022/12/21 11:16:50;;;;;;;29.02;20.70;;;9.30;99.90;;;;;;5092316;28;20902;-66
2022/12/21 11:19:19;;;;;;;24.67;18.48;;;9.30;99.90;;;;;;5091913;28;20496;-65
2022/12/21 11:21:49;;;;;;;23.20;17.55;;;9.30;99.90;;;;;;5092315;28;20410;-64
2022/12/21 11:24:20;;;;;;;24.70;18.43;;;9.30;99.90;;;;;;5092510;28;20763;-63
2022/12/21 11:26:49;;;;;;;24.92;18.15;;;9.20;99.90;;;;;;5093011;28;20410;-64
2022/12/21 11:29:23;;;;;;;25.77;17.42;;;9.20;99.90;;;;;;5092280;28;20775;-65
2022/12/21 11:31:51;;;;;;;25.63;18.67;;;9.30;99.90;;;;;;5092491;28;20496;-64
2022/12/21 11:34:30;;;;;;;26.63;19.00;;;9.30;99.90;;;;;;5092762;28;20409;-65
2022/12/21 11:37:00;;;;;;;24.20;17.73;;;9.30;99.90;;;;;;5093015;28;20423;-67
2022/12/21 11:39:27;;;;;;;23.45;17.67;;;9.30;99.90;;;;;;5093363;28;20412;-65
2022/12/21 11:41:55;;;;;;;22.45;16.45;;;9.30;99.90;;;;;;5092582;28;20413;-62
2022/12/21 11:44:26;;;;;;;21.88;16.77;;;9.30;99.90;;;;;;5092399;28;20417;-64
2022/12/21 11:47:03;;;;;;;23.17;18.05;;;9.30;99.90;;;;;;5094319;28;20406;-63
2022/12/21 11:49:49;;;;;;;23.80;18.08;;;9.40;99.90;;;;;;5095166;28;20458;-64
2022/12/21 11:52:26;;;;;;;22.73;17.23;;;9.60;99.90;;;;;;5093288;28;20421;-64
2022/12/21 11:55:01;;;;;;;20.35;16.10;;;9.80;99.90;;;;;;5092921;28;20410;-64
2022/12/21 11:57:37;;;;;;;21.20;14.75;;;9.90;99.90;;;;;;5092644;28;20417;-65
2022/12/21 12:00:08;;;;;;;18.67;14.20;;;10.00;99.90;;;;;;5092476;28;20410;-64
2022/12/21 12:03:11;;;;;;;17.55;13.40;;;10.10;99.90;;;;;;5092498;28;20402;-64
2022/12/21 12:05:59;;;;;;;18.55;14.20;;;10.10;99.90;;;;;;5092500;28;20420;-64
2022/12/21 12:08:45;;;;;;;15.73;12.35;;;10.20;99.90;;;;;;5092378;28;20419;-64
2022/12/21 12:11:24;;;;;;;15.35;12.60;;;10.20;99.90;;;;;;5092360;28;20436;-63
2022/12/21 12:14:02;;;;;;;17.13;13.80;;;10.10;99.90;;;;;;5092387;28;20435;-64
2022/12/21 12:16:34;;;;;;;16.63;12.45;;;10.00;99.90;;;;;;5093083;28;20429;-64
2022/12/21 12:19:10;;;;;;;14.90;12.70;;;10.00;99.90;;;;;;5092378;28;20425;-64
2022/12/21 12:21:52;;;;;;;15.07;12.27;;;9.90;99.90;;;;;;5090982;28;20409;-67
2022/12/21 12:24:38;;;;;;;15.07;12.95;;;9.90;99.90;;;;;;5088908;28;20434;-64
2022/12/21 12:27:16;;;;;;;15.40;13.50;;;9.90;99.90;;;;;;5092129;28;20409;-63
2022/12/21 12:30:04;;;;;;;15.30;13.32;;;10.00;99.90;;;;;;5091709;28;20432;-64
2022/12/21 12:32:53;;;;;;;13.80;12.15;;;10.00;99.90;;;;;;5093262;28;20436;-62
2022/12/21 12:35:45;;;;;;;14.10;11.60;;;10.00;99.90;;;;;;5099605;28;20495;-64
2022/12/21 12:38:19;;;;;;;13.50;12.10;;;10.00;99.90;;;;;;5083564;28;20499;-64
2022/12/21 12:41:04;;;;;;;12.67;11.37;;;10.10;99.90;;;;;;5096530;28;20413;-65
2022/12/21 12:43:41;;;;;;;12.68;11.38;;;10.10;99.90;;;;;;5096048;28;20405;-63
2022/12/21 12:46:16;;;;;;;14.32;12.55;;;10.00;99.90;;;;;;5096058;28;20788;-63
2022/12/21 12:48:50;;;;;;;12.50;10.70;;;10.00;99.90;;;;;;5096578;28;20420;-64
2022/12/21 12:51:24;;;;;;;13.35;11.48;;;9.90;99.90;;;;;;5096120;28;20412;-64
2022/12/21 12:53:58;;;;;;;14.15;11.80;;;9.90;99.90;;;;;;5096916;28;20414;-65
2022/12/21 12:56:36;;;;;;;16.80;11.97;;;9.80;99.90;;;;;;5098789;28;20454;-62
2022/12/21 12:59:09;;;;;;;14.35;12.65;;;9.80;99.90;;;;;;5098758;28;20406;-64
2022/12/21 13:01:43;;;;;;;14.93;12.75;;;9.80;99.90;;;;;;5099081;28;20417;-64
2022/12/21 13:04:31;;;;;;;15.45;13.02;;;9.80;99.90;;;;;;5099777;28;20409;-64
2022/12/21 13:07:07;;;;;;;14.70;12.40;;;9.80;99.90;;;;;;5097106;28;20496;-63
2022/12/21 13:09:43;;;;;;;14.48;12.23;;;9.80;99.90;;;;;;5097532;28;20413;-63
2022/12/21 13:12:18;;;;;;;13.90;12.23;;;9.90;99.90;;;;;;5095303;28;20429;-63
2022/12/21 13:14:49;;;;;;;13.55;11.27;;;9.90;99.90;;;;;;5095741;28;20471;-63